sensor_id;sensor_type;location;lat;lon;timestamp;P1;durP1;ratioP1;P2;durP2;ratioP2
50483;SDS011;36409;52.168;20.878;2024-03-08T00:01:32;70.87;;;35.40;;
50483;SDS011;36409;52.168;20.878;2024-03-08T00:04:05;72.23;;;33.50;;
50483;SDS011;36409;52.168;20.878;2024-03-08T00:06:38;73.57;;;36.70;;
50483;SDS011;36409;52.168;20.878;2024-03-08T00:09:11;73.33;;;35.37;;
50483;SDS011;36409;52.168;20.878;2024-03-08T00:11:44;69.90;;;34.83;;
50483;SDS011;36409;52.168;20.878;2024-03-08T00:14:18;72.27;;;35.60;;
50483;SDS011;36409;52.168;20.878;2024-03-08T00:16:52;75.55;;;37.73;;
50483;SDS011;36409;52.168;20.878;2024-03-08T00:19:25;76.73;;;35.23;;
50483;SDS011;36409;52.168;20.878;2024-03-08T00:22:01;78.30;;;36.73;;
50483;SDS011;36409;52.168;20.878;2024-03-08T00:24:33;76.17;;;37.80;;
50483;SDS011;36409;52.168;20.878;2024-03-08T00:27:07;75.70;;;38.42;;
50483;SDS011;36409;52.168;20.878;2024-03-08T00:29:41;75.78;;;38.23;;
50483;SDS011;36409;52.168;20.878;2024-03-08T00:32:17;83.43;;;39.37;;
50483;SDS011;36409;52.168;20.878;2024-03-08T00:34:51;68.83;;;36.93;;
50483;SDS011;36409;52.168;20.878;2024-03-08T00:37:24;76.60;;;38.45;;
50483;SDS011;36409;52.168;20.878;2024-03-08T00:39:56;77.40;;;36.97;;
50483;SDS011;36409;52.168;20.878;2024-03-08T00:42:29;82.43;;;40.10;;
50483;SDS011;36409;52.168;20.878;2024-03-08T00:45:03;83.00;;;38.53;;
50483;SDS011;36409;52.168;20.878;2024-03-08T00:47:36;81.70;;;37.87;;
50483;SDS011;36409;52.168;20.878;2024-03-08T00:50:10;82.30;;;39.47;;
50483;SDS011;36409;52.168;20.878;2024-03-08T00:52:43;76.45;;;38.83;;
50483;SDS011;36409;52.168;20.878;2024-03-08T00:55:19;76.77;;;37.50;;
50483;SDS011;36409;52.168;20.878;2024-03-08T00:57:53;84.50;;;39.30;;
50483;SDS011;36409;52.168;20.878;2024-03-08T01:00:27;80.47;;;40.13;;
50483;SDS011;36409;52.168;20.878;2024-03-08T01:02:59;81.73;;;39.33;;
50483;SDS011;36409;52.168;20.878;2024-03-08T01:05:36;83.73;;;39.33;;
50483;SDS011;36409;52.168;20.878;2024-03-08T01:08:10;96.63;;;41.40;;
50483;SDS011;36409;52.168;20.878;2024-03-08T01:10:45;85.73;;;39.67;;
50483;SDS011;36409;52.168;20.878;2024-03-08T01:13:21;77.77;;;37.90;;
50483;SDS011;36409;52.168;20.878;2024-03-08T01:15:55;78.00;;;38.77;;
50483;SDS011;36409;52.168;20.878;2024-03-08T01:18:31;82.17;;;39.60;;
50483;SDS011;36409;52.168;20.878;2024-03-08T01:21:04;78.03;;;37.70;;
50483;SDS011;36409;52.168;20.878;2024-03-08T01:23:38;83.20;;;39.60;;
50483;SDS011;36409;52.168;20.878;2024-03-08T01:28:44;80.57;;;35.87;;
50483;SDS011;36409;52.168;20.878;2024-03-08T01:31:17;84.40;;;38.70;;
50483;SDS011;36409;52.168;20.878;2024-03-08T01:33:50;76.62;;;40.20;;
50483;SDS011;36409;52.168;20.878;2024-03-08T01:36:23;80.97;;;39.97;;
50483;SDS011;36409;52.168;20.878;2024-03-08T01:41:29;76.40;;;36.80;;
50483;SDS011;36409;52.168;20.878;2024-03-08T01:44:01;79.90;;;40.47;;
50483;SDS011;36409;52.168;20.878;2024-03-08T01:46:37;88.30;;;39.00;;
50483;SDS011;36409;52.168;20.878;2024-03-08T01:49:14;80.37;;;37.17;;
50483;SDS011;36409;52.168;20.878;2024-03-08T01:51:47;88.30;;;42.23;;
50483;SDS011;36409;52.168;20.878;2024-03-08T01:54:20;81.47;;;40.93;;
50483;SDS011;36409;52.168;20.878;2024-03-08T01:56:54;78.00;;;38.42;;
50483;SDS011;36409;52.168;20.878;2024-03-08T01:59:28;77.70;;;40.23;;
50483;SDS011;36409;52.168;20.878;2024-03-08T02:02:01;82.53;;;39.77;;
50483;SDS011;36409;52.168;20.878;2024-03-08T02:04:38;81.80;;;38.20;;
50483;SDS011;36409;52.168;20.878;2024-03-08T02:07:12;86.87;;;39.90;;
50483;SDS011;36409;52.168;20.878;2024-03-08T02:09:45;78.35;;;39.35;;
50483;SDS011;36409;52.168;20.878;2024-03-08T02:12:19;79.13;;;37.07;;
50483;SDS011;36409;52.168;20.878;2024-03-08T02:14:53;83.40;;;39.53;;
50483;SDS011;36409;52.168;20.878;2024-03-08T02:17:25;75.00;;;37.17;;
50483;SDS011;36409;52.168;20.878;2024-03-08T02:20:00;69.33;;;37.00;;
50483;SDS011;36409;52.168;20.878;2024-03-08T02:25:08;71.77;;;34.30;;
50483;SDS011;36409;52.168;20.878;2024-03-08T02:27:41;75.05;;;33.83;;
50483;SDS011;36409;52.168;20.878;2024-03-08T02:30:13;71.00;;;35.00;;
50483;SDS011;36409;52.168;20.878;2024-03-08T02:32:47;72.20;;;35.30;;
50483;SDS011;36409;52.168;20.878;2024-03-08T02:35:20;77.47;;;35.70;;
50483;SDS011;36409;52.168;20.878;2024-03-08T02:37:56;78.43;;;36.33;;
50483;SDS011;36409;52.168;20.878;2024-03-08T02:40:30;73.80;;;36.28;;
50483;SDS011;36409;52.168;20.878;2024-03-08T02:43:04;79.73;;;38.00;;
50483;SDS011;36409;52.168;20.878;2024-03-08T02:45:36;66.45;;;33.23;;
50483;SDS011;36409;52.168;20.878;2024-03-08T02:48:12;69.57;;;34.27;;
50483;SDS011;36409;52.168;20.878;2024-03-08T02:50:46;74.10;;;35.65;;
50483;SDS011;36409;52.168;20.878;2024-03-08T02:53:22;73.53;;;36.03;;
50483;SDS011;36409;52.168;20.878;2024-03-08T02:55:57;73.43;;;34.87;;
50483;SDS011;36409;52.168;20.878;2024-03-08T02:58:31;71.23;;;34.57;;
50483;SDS011;36409;52.168;20.878;2024-03-08T03:01:04;69.27;;;34.43;;
50483;SDS011;36409;52.168;20.878;2024-03-08T03:03:39;66.93;;;32.30;;
50483;SDS011;36409;52.168;20.878;2024-03-08T03:06:13;69.87;;;32.67;;
50483;SDS011;36409;52.168;20.878;2024-03-08T03:08:46;68.53;;;32.60;;
50483;SDS011;36409;52.168;20.878;2024-03-08T03:11:24;65.23;;;32.70;;
50483;SDS011;36409;52.168;20.878;2024-03-08T03:13:58;73.37;;;32.40;;
50483;SDS011;36409;52.168;20.878;2024-03-08T03:16:31;73.17;;;34.33;;
50483;SDS011;36409;52.168;20.878;2024-03-08T03:19:04;66.73;;;33.27;;
50483;SDS011;36409;52.168;20.878;2024-03-08T03:21:37;61.40;;;33.27;;
50483;SDS011;36409;52.168;20.878;2024-03-08T03:24:10;70.57;;;32.00;;
50483;SDS011;36409;52.168;20.878;2024-03-08T03:26:45;69.33;;;31.90;;
50483;SDS011;36409;52.168;20.878;2024-03-08T03:29:23;69.63;;;31.73;;
50483;SDS011;36409;52.168;20.878;2024-03-08T03:31:56;66.17;;;32.43;;
50483;SDS011;36409;52.168;20.878;2024-03-08T03:34:28;61.33;;;33.47;;
50483;SDS011;36409;52.168;20.878;2024-03-08T03:37:00;67.90;;;32.13;;
50483;SDS011;36409;52.168;20.878;2024-03-08T03:39:36;63.80;;;32.27;;
50483;SDS011;36409;52.168;20.878;2024-03-08T03:42:18;62.77;;;31.20;;
50483;SDS011;36409;52.168;20.878;2024-03-08T03:44:53;67.07;;;34.17;;
50483;SDS011;36409;52.168;20.878;2024-03-08T03:47:28;69.00;;;33.30;;
50483;SDS011;36409;52.168;20.878;2024-03-08T03:50:01;79.23;;;36.33;;
50483;SDS011;36409;52.168;20.878;2024-03-08T03:52:33;70.03;;;33.73;;
50483;SDS011;36409;52.168;20.878;2024-03-08T03:55:08;70.00;;;32.67;;
50483;SDS011;36409;52.168;20.878;2024-03-08T03:57:41;65.10;;;32.37;;
50483;SDS011;36409;52.168;20.878;2024-03-08T04:00:16;62.43;;;32.20;;
50483;SDS011;36409;52.168;20.878;2024-03-08T04:02:52;74.20;;;34.80;;
50483;SDS011;36409;52.168;20.878;2024-03-08T04:05:28;70.90;;;33.60;;
50483;SDS011;36409;52.168;20.878;2024-03-08T04:08:01;67.40;;;33.90;;
50483;SDS011;36409;52.168;20.878;2024-03-08T04:10:33;71.97;;;34.20;;
50483;SDS011;36409;52.168;20.878;2024-03-08T04:13:06;71.07;;;33.30;;
50483;SDS011;36409;52.168;20.878;2024-03-08T04:15:40;73.67;;;34.53;;
50483;SDS011;36409;52.168;20.878;2024-03-08T04:18:18;66.50;;;32.33;;
50483;SDS011;36409;52.168;20.878;2024-03-08T04:20:51;70.40;;;34.10;;
50483;SDS011;36409;52.168;20.878;2024-03-08T04:23:25;68.10;;;34.47;;
50483;SDS011;36409;52.168;20.878;2024-03-08T04:25:58;74.97;;;33.93;;
50483;SDS011;36409;52.168;20.878;2024-03-08T04:28:32;74.00;;;33.20;;
50483;SDS011;36409;52.168;20.878;2024-03-08T04:31:08;71.00;;;35.17;;
50483;SDS011;36409;52.168;20.878;2024-03-08T04:33:44;71.70;;;34.30;;
50483;SDS011;36409;52.168;20.878;2024-03-08T04:36:16;73.90;;;35.47;;
50483;SDS011;36409;52.168;20.878;2024-03-08T04:38:49;68.90;;;34.00;;
50483;SDS011;36409;52.168;20.878;2024-03-08T04:41:21;65.17;;;33.93;;
50483;SDS011;36409;52.168;20.878;2024-03-08T04:43:54;68.63;;;35.07;;
50483;SDS011;36409;52.168;20.878;2024-03-08T04:46:43;75.87;;;34.83;;
50483;SDS011;36409;52.168;20.878;2024-03-08T04:49:38;73.57;;;34.33;;
50483;SDS011;36409;52.168;20.878;2024-03-08T04:52:12;73.53;;;35.27;;
50483;SDS011;36409;52.168;20.878;2024-03-08T04:54:51;71.20;;;34.70;;
50483;SDS011;36409;52.168;20.878;2024-03-08T04:57:23;66.90;;;33.50;;
50483;SDS011;36409;52.168;20.878;2024-03-08T04:59:56;71.37;;;35.63;;
50483;SDS011;36409;52.168;20.878;2024-03-08T05:05:01;71.17;;;32.87;;
50483;SDS011;36409;52.168;20.878;2024-03-08T05:07:35;65.67;;;34.83;;
50483;SDS011;36409;52.168;20.878;2024-03-08T05:10:09;66.45;;;32.93;;
50483;SDS011;36409;52.168;20.878;2024-03-08T05:12:47;75.93;;;34.90;;
50483;SDS011;36409;52.168;20.878;2024-03-08T05:15:27;72.17;;;34.87;;
50483;SDS011;36409;52.168;20.878;2024-03-08T05:18:04;65.73;;;34.03;;
50483;SDS011;36409;52.168;20.878;2024-03-08T05:20:37;72.58;;;34.48;;
50483;SDS011;36409;52.168;20.878;2024-03-08T05:23:15;69.23;;;35.63;;
50483;SDS011;36409;52.168;20.878;2024-03-08T05:25:50;71.30;;;34.97;;
50483;SDS011;36409;52.168;20.878;2024-03-08T05:28:23;77.00;;;34.95;;
50483;SDS011;36409;52.168;20.878;2024-03-08T05:30:59;74.03;;;36.77;;
50483;SDS011;36409;52.168;20.878;2024-03-08T05:33:34;79.70;;;37.80;;
50483;SDS011;36409;52.168;20.878;2024-03-08T05:36:08;83.92;;;38.48;;
50483;SDS011;36409;52.168;20.878;2024-03-08T05:38:41;73.03;;;38.37;;
50483;SDS011;36409;52.168;20.878;2024-03-08T05:41:14;79.40;;;36.77;;
50483;SDS011;36409;52.168;20.878;2024-03-08T05:43:46;67.27;;;35.97;;
50483;SDS011;36409;52.168;20.878;2024-03-08T05:46:19;74.73;;;35.60;;
50483;SDS011;36409;52.168;20.878;2024-03-08T05:48:53;67.07;;;32.87;;
50483;SDS011;36409;52.168;20.878;2024-03-08T05:51:25;77.53;;;35.57;;
50483;SDS011;36409;52.168;20.878;2024-03-08T05:53:58;77.63;;;36.60;;
50483;SDS011;36409;52.168;20.878;2024-03-08T05:56:32;72.17;;;37.40;;
50483;SDS011;36409;52.168;20.878;2024-03-08T05:59:05;75.40;;;36.27;;
50483;SDS011;36409;52.168;20.878;2024-03-08T06:01:37;74.43;;;37.83;;
50483;SDS011;36409;52.168;20.878;2024-03-08T06:04:13;77.70;;;38.80;;
50483;SDS011;36409;52.168;20.878;2024-03-08T06:06:47;83.00;;;38.73;;
50483;SDS011;36409;52.168;20.878;2024-03-08T06:09:21;77.25;;;37.20;;
50483;SDS011;36409;52.168;20.878;2024-03-08T06:11:57;81.27;;;39.53;;
50483;SDS011;36409;52.168;20.878;2024-03-08T06:14:31;75.30;;;39.43;;
50483;SDS011;36409;52.168;20.878;2024-03-08T06:17:04;80.40;;;40.40;;
50483;SDS011;36409;52.168;20.878;2024-03-08T06:19:36;88.73;;;40.63;;
50483;SDS011;36409;52.168;20.878;2024-03-08T06:22:11;80.50;;;41.00;;
50483;SDS011;36409;52.168;20.878;2024-03-08T06:24:43;83.57;;;42.37;;
50483;SDS011;36409;52.168;20.878;2024-03-08T06:27:18;89.03;;;42.00;;
50483;SDS011;36409;52.168;20.878;2024-03-08T06:29:51;82.17;;;39.63;;
50483;SDS011;36409;52.168;20.878;2024-03-08T06:32:30;83.80;;;40.67;;
50483;SDS011;36409;52.168;20.878;2024-03-08T06:35:05;80.97;;;41.87;;
50483;SDS011;36409;52.168;20.878;2024-03-08T06:37:40;85.50;;;45.40;;
50483;SDS011;36409;52.168;20.878;2024-03-08T06:40:15;91.97;;;44.97;;
50483;SDS011;36409;52.168;20.878;2024-03-08T06:42:49;89.47;;;46.63;;
50483;SDS011;36409;52.168;20.878;2024-03-08T06:45:26;90.00;;;45.43;;
50483;SDS011;36409;52.168;20.878;2024-03-08T06:47:59;94.32;;;45.95;;
50483;SDS011;36409;52.168;20.878;2024-03-08T06:50:32;98.90;;;47.97;;
50483;SDS011;36409;52.168;20.878;2024-03-08T06:53:06;96.53;;;49.40;;
50483;SDS011;36409;52.168;20.878;2024-03-08T06:55:41;95.03;;;48.60;;
50483;SDS011;36409;52.168;20.878;2024-03-08T06:58:17;104.03;;;47.57;;
50483;SDS011;36409;52.168;20.878;2024-03-08T07:00:50;89.13;;;46.33;;
50483;SDS011;36409;52.168;20.878;2024-03-08T07:03:22;93.77;;;48.60;;
50483;SDS011;36409;52.168;20.878;2024-03-08T07:05:58;102.75;;;49.95;;
50483;SDS011;36409;52.168;20.878;2024-03-08T07:08:33;99.57;;;49.37;;
50483;SDS011;36409;52.168;20.878;2024-03-08T07:11:09;96.20;;;48.73;;
50483;SDS011;36409;52.168;20.878;2024-03-08T07:13:45;89.20;;;48.37;;
50483;SDS011;36409;52.168;20.878;2024-03-08T07:16:18;90.83;;;47.90;;
50483;SDS011;36409;52.168;20.878;2024-03-08T07:18:56;101.53;;;47.77;;
50483;SDS011;36409;52.168;20.878;2024-03-08T07:21:28;97.03;;;48.53;;
50483;SDS011;36409;52.168;20.878;2024-03-08T07:24:02;79.37;;;42.20;;
50483;SDS011;36409;52.168;20.878;2024-03-08T07:26:54;87.13;;;44.77;;
50483;SDS011;36409;52.168;20.878;2024-03-08T07:29:27;83.70;;;44.57;;
50483;SDS011;36409;52.168;20.878;2024-03-08T07:32:00;96.87;;;48.80;;
50483;SDS011;36409;52.168;20.878;2024-03-08T07:34:41;92.97;;;48.30;;
50483;SDS011;36409;52.168;20.878;2024-03-08T07:37:13;71.13;;;40.43;;
50483;SDS011;36409;52.168;20.878;2024-03-08T07:39:46;76.40;;;42.53;;
50483;SDS011;36409;52.168;20.878;2024-03-08T07:42:20;62.37;;;39.57;;
50483;SDS011;36409;52.168;20.878;2024-03-08T07:44:56;60.95;;;38.80;;
50483;SDS011;36409;52.168;20.878;2024-03-08T07:47:29;67.10;;;41.43;;
50483;SDS011;36409;52.168;20.878;2024-03-08T07:50:04;61.40;;;38.23;;
50483;SDS011;36409;52.168;20.878;2024-03-08T07:52:38;59.80;;;39.43;;
50483;SDS011;36409;52.168;20.878;2024-03-08T07:55:11;54.30;;;34.70;;
50483;SDS011;36409;52.168;20.878;2024-03-08T07:57:44;62.27;;;37.43;;
50483;SDS011;36409;52.168;20.878;2024-03-08T08:00:18;59.13;;;38.33;;
50483;SDS011;36409;52.168;20.878;2024-03-08T08:03:06;63.77;;;41.10;;
50483;SDS011;36409;52.168;20.878;2024-03-08T08:05:42;60.92;;;36.38;;
50483;SDS011;36409;52.168;20.878;2024-03-08T08:08:15;58.10;;;37.47;;
50483;SDS011;36409;52.168;20.878;2024-03-08T08:10:47;62.33;;;37.67;;
50483;SDS011;36409;52.168;20.878;2024-03-08T08:13:20;54.63;;;35.13;;
50483;SDS011;36409;52.168;20.878;2024-03-08T08:15:53;55.73;;;37.43;;
50483;SDS011;36409;52.168;20.878;2024-03-08T08:18:26;57.70;;;39.10;;
50483;SDS011;36409;52.168;20.878;2024-03-08T08:20:59;45.63;;;34.20;;
50483;SDS011;36409;52.168;20.878;2024-03-08T08:23:34;56.83;;;36.27;;
50483;SDS011;36409;52.168;20.878;2024-03-08T08:26:09;54.05;;;34.05;;
50483;SDS011;36409;52.168;20.878;2024-03-08T08:28:44;52.07;;;34.63;;
50483;SDS011;36409;52.168;20.878;2024-03-08T08:31:17;59.93;;;38.83;;
50483;SDS011;36409;52.168;20.878;2024-03-08T08:33:49;49.93;;;34.33;;
50483;SDS011;36409;52.168;20.878;2024-03-08T08:36:27;50.00;;;32.00;;
50483;SDS011;36409;52.168;20.878;2024-03-08T08:39:05;49.60;;;33.90;;
50483;SDS011;36409;52.168;20.878;2024-03-08T08:41:42;51.53;;;34.37;;
50483;SDS011;36409;52.168;20.878;2024-03-08T08:44:17;50.33;;;33.33;;
50483;SDS011;36409;52.168;20.878;2024-03-08T08:46:50;51.03;;;32.70;;
50483;SDS011;36409;52.168;20.878;2024-03-08T08:49:34;46.70;;;31.67;;
50483;SDS011;36409;52.168;20.878;2024-03-08T08:52:09;44.90;;;29.93;;
50483;SDS011;36409;52.168;20.878;2024-03-08T08:54:45;54.80;;;32.73;;
50483;SDS011;36409;52.168;20.878;2024-03-08T08:57:19;49.83;;;31.03;;
50483;SDS011;36409;52.168;20.878;2024-03-08T08:59:55;50.60;;;30.53;;
50483;SDS011;36409;52.168;20.878;2024-03-08T09:02:27;48.87;;;30.13;;
50483;SDS011;36409;52.168;20.878;2024-03-08T09:05:00;57.80;;;32.43;;
50483;SDS011;36409;52.168;20.878;2024-03-08T09:07:33;48.25;;;29.35;;
50483;SDS011;36409;52.168;20.878;2024-03-08T09:10:06;48.27;;;28.83;;
50483;SDS011;36409;52.168;20.878;2024-03-08T09:12:44;42.13;;;26.27;;
50483;SDS011;36409;52.168;20.878;2024-03-08T09:15:16;41.20;;;25.30;;
50483;SDS011;36409;52.168;20.878;2024-03-08T09:20:22;32.80;;;18.53;;
50483;SDS011;36409;52.168;20.878;2024-03-08T09:23:01;28.00;;;16.43;;
50483;SDS011;36409;52.168;20.878;2024-03-08T09:25:34;31.47;;;16.97;;
50483;SDS011;36409;52.168;20.878;2024-03-08T09:28:09;31.63;;;18.20;;
50483;SDS011;36409;52.168;20.878;2024-03-08T09:30:42;24.60;;;16.90;;
50483;SDS011;36409;52.168;20.878;2024-03-08T09:33:27;26.33;;;16.57;;
50483;SDS011;36409;52.168;20.878;2024-03-08T09:36:07;27.37;;;17.93;;
50483;SDS011;36409;52.168;20.878;2024-03-08T09:38:41;30.83;;;16.93;;
50483;SDS011;36409;52.168;20.878;2024-03-08T09:41:14;29.67;;;18.27;;
50483;SDS011;36409;52.168;20.878;2024-03-08T09:43:47;29.17;;;17.00;;
50483;SDS011;36409;52.168;20.878;2024-03-08T09:46:19;30.57;;;19.33;;
50483;SDS011;36409;52.168;20.878;2024-03-08T09:48:53;30.03;;;18.83;;
50483;SDS011;36409;52.168;20.878;2024-03-08T09:51:27;26.03;;;16.67;;
50483;SDS011;36409;52.168;20.878;2024-03-08T09:54:02;37.55;;;17.25;;
50483;SDS011;36409;52.168;20.878;2024-03-08T09:56:45;27.53;;;17.97;;
50483;SDS011;36409;52.168;20.878;2024-03-08T09:59:20;25.40;;;17.17;;
50483;SDS011;36409;52.168;20.878;2024-03-08T10:02:12;25.03;;;15.53;;
50483;SDS011;36409;52.168;20.878;2024-03-08T10:04:46;25.47;;;16.20;;
50483;SDS011;36409;52.168;20.878;2024-03-08T10:07:23;23.33;;;15.17;;
50483;SDS011;36409;52.168;20.878;2024-03-08T10:09:55;19.90;;;14.40;;
50483;SDS011;36409;52.168;20.878;2024-03-08T10:12:28;28.98;;;14.58;;
50483;SDS011;36409;52.168;20.878;2024-03-08T10:15:01;26.50;;;16.93;;
50483;SDS011;36409;52.168;20.878;2024-03-08T10:17:33;26.83;;;16.63;;
50483;SDS011;36409;52.168;20.878;2024-03-08T10:20:14;29.97;;;16.40;;
50483;SDS011;36409;52.168;20.878;2024-03-08T10:22:48;24.27;;;16.10;;
50483;SDS011;36409;52.168;20.878;2024-03-08T10:25:35;24.20;;;15.50;;
50483;SDS011;36409;52.168;20.878;2024-03-08T10:28:08;25.27;;;15.78;;
50483;SDS011;36409;52.168;20.878;2024-03-08T10:30:47;26.52;;;17.02;;
50483;SDS011;36409;52.168;20.878;2024-03-08T10:33:22;24.37;;;16.57;;
50483;SDS011;36409;52.168;20.878;2024-03-08T10:35:55;24.57;;;16.37;;
50483;SDS011;36409;52.168;20.878;2024-03-08T10:38:33;31.07;;;17.40;;
50483;SDS011;36409;52.168;20.878;2024-03-08T10:41:09;24.37;;;15.43;;
50483;SDS011;36409;52.168;20.878;2024-03-08T10:43:47;25.35;;;16.45;;
50483;SDS011;36409;52.168;20.878;2024-03-08T10:46:38;26.00;;;15.33;;
50483;SDS011;36409;52.168;20.878;2024-03-08T10:49:25;27.20;;;15.47;;
50483;SDS011;36409;52.168;20.878;2024-03-08T10:52:04;29.43;;;17.40;;
50483;SDS011;36409;52.168;20.878;2024-03-08T10:57:13;23.50;;;16.20;;
50483;SDS011;36409;52.168;20.878;2024-03-08T10:59:49;26.67;;;15.40;;
50483;SDS011;36409;52.168;20.878;2024-03-08T11:02:28;26.40;;;14.73;;
50483;SDS011;36409;52.168;20.878;2024-03-08T11:05:01;26.30;;;16.00;;
50483;SDS011;36409;52.168;20.878;2024-03-08T11:07:35;23.07;;;15.97;;
50483;SDS011;36409;52.168;20.878;2024-03-08T11:10:20;32.83;;;16.57;;
50483;SDS011;36409;52.168;20.878;2024-03-08T11:12:59;25.47;;;16.23;;
50483;SDS011;36409;52.168;20.878;2024-03-08T11:15:32;27.97;;;17.03;;
50483;SDS011;36409;52.168;20.878;2024-03-08T11:18:09;25.60;;;15.90;;
50483;SDS011;36409;52.168;20.878;2024-03-08T11:20:42;28.53;;;17.47;;
50483;SDS011;36409;52.168;20.878;2024-03-08T11:23:14;25.50;;;16.03;;
50483;SDS011;36409;52.168;20.878;2024-03-08T11:25:55;27.60;;;14.90;;
50483;SDS011;36409;52.168;20.878;2024-03-08T11:28:28;30.00;;;15.00;;
50483;SDS011;36409;52.168;20.878;2024-03-08T11:34:16;21.47;;;13.63;;
50483;SDS011;36409;52.168;20.878;2024-03-08T11:36:50;26.53;;;14.60;;
50483;SDS011;36409;52.168;20.878;2024-03-08T11:39:25;23.23;;;13.20;;
50483;SDS011;36409;52.168;20.878;2024-03-08T11:41:58;21.23;;;14.37;;
50483;SDS011;36409;52.168;20.878;2024-03-08T11:44:30;25.73;;;15.37;;
50483;SDS011;36409;52.168;20.878;2024-03-08T11:47:03;29.07;;;15.40;;
50483;SDS011;36409;52.168;20.878;2024-03-08T11:49:42;24.75;;;14.90;;
50483;SDS011;36409;52.168;20.878;2024-03-08T11:52:17;26.45;;;15.55;;
50483;SDS011;36409;52.168;20.878;2024-03-08T11:54:52;25.33;;;14.47;;
50483;SDS011;36409;52.168;20.878;2024-03-08T11:57:27;23.97;;;15.07;;
50483;SDS011;36409;52.168;20.878;2024-03-08T11:59:59;29.30;;;17.90;;
50483;SDS011;36409;52.168;20.878;2024-03-08T12:02:36;27.77;;;16.47;;
50483;SDS011;36409;52.168;20.878;2024-03-08T12:05:12;28.07;;;16.00;;
50483;SDS011;36409;52.168;20.878;2024-03-08T12:07:45;28.03;;;15.93;;
50483;SDS011;36409;52.168;20.878;2024-03-08T12:10:29;28.50;;;15.67;;
50483;SDS011;36409;52.168;20.878;2024-03-08T12:13:01;24.67;;;15.37;;
50483;SDS011;36409;52.168;20.878;2024-03-08T12:15:41;26.17;;;15.37;;
50483;SDS011;36409;52.168;20.878;2024-03-08T12:18:13;29.43;;;15.20;;
50483;SDS011;36409;52.168;20.878;2024-03-08T12:20:46;25.97;;;14.63;;
50483;SDS011;36409;52.168;20.878;2024-03-08T12:23:19;25.70;;;14.75;;
50483;SDS011;36409;52.168;20.878;2024-03-08T12:25:54;27.77;;;15.03;;
50483;SDS011;36409;52.168;20.878;2024-03-08T12:28:26;28.37;;;16.60;;
50483;SDS011;36409;52.168;20.878;2024-03-08T12:30:59;25.73;;;14.83;;
50483;SDS011;36409;52.168;20.878;2024-03-08T12:33:34;22.97;;;14.60;;
50483;SDS011;36409;52.168;20.878;2024-03-08T12:36:10;21.10;;;13.48;;
50483;SDS011;36409;52.168;20.878;2024-03-08T12:38:47;28.53;;;15.37;;
50483;SDS011;36409;52.168;20.878;2024-03-08T12:41:20;26.13;;;14.70;;
50483;SDS011;36409;52.168;20.878;2024-03-08T12:43:52;30.47;;;15.33;;
50483;SDS011;36409;52.168;20.878;2024-03-08T12:46:25;25.77;;;14.33;;
50483;SDS011;36409;52.168;20.878;2024-03-08T12:48:59;29.70;;;14.57;;
50483;SDS011;36409;52.168;20.878;2024-03-08T12:51:34;24.33;;;14.53;;
50483;SDS011;36409;52.168;20.878;2024-03-08T12:54:09;23.63;;;14.30;;
50483;SDS011;36409;52.168;20.878;2024-03-08T12:56:42;23.40;;;13.70;;
50483;SDS011;36409;52.168;20.878;2024-03-08T12:59:14;24.85;;;14.58;;
50483;SDS011;36409;52.168;20.878;2024-03-08T13:01:46;25.30;;;15.00;;
50483;SDS011;36409;52.168;20.878;2024-03-08T13:04:21;29.20;;;14.83;;
50483;SDS011;36409;52.168;20.878;2024-03-08T13:06:55;31.20;;;16.40;;
50483;SDS011;36409;52.168;20.878;2024-03-08T13:09:27;28.67;;;16.43;;
50483;SDS011;36409;52.168;20.878;2024-03-08T13:12:01;27.07;;;14.70;;
50483;SDS011;36409;52.168;20.878;2024-03-08T13:14:35;27.90;;;15.20;;
50483;SDS011;36409;52.168;20.878;2024-03-08T13:17:08;31.43;;;14.33;;
50483;SDS011;36409;52.168;20.878;2024-03-08T13:19:42;26.63;;;15.13;;
50483;SDS011;36409;52.168;20.878;2024-03-08T13:22:14;26.77;;;14.80;;
50483;SDS011;36409;52.168;20.878;2024-03-08T13:24:47;26.97;;;15.40;;
50483;SDS011;36409;52.168;20.878;2024-03-08T13:27:22;29.37;;;16.17;;
50483;SDS011;36409;52.168;20.878;2024-03-08T13:29:56;27.10;;;14.57;;
50483;SDS011;36409;52.168;20.878;2024-03-08T13:35:01;27.30;;;13.63;;
50483;SDS011;36409;52.168;20.878;2024-03-08T13:37:37;24.90;;;14.37;;
50483;SDS011;36409;52.168;20.878;2024-03-08T13:40:13;29.20;;;14.30;;
50483;SDS011;36409;52.168;20.878;2024-03-08T13:42:52;26.60;;;14.73;;
50483;SDS011;36409;52.168;20.878;2024-03-08T13:45:25;27.03;;;15.20;;
50483;SDS011;36409;52.168;20.878;2024-03-08T13:48:00;26.97;;;14.60;;
50483;SDS011;36409;52.168;20.878;2024-03-08T13:50:36;27.37;;;15.03;;
50483;SDS011;36409;52.168;20.878;2024-03-08T13:53:10;25.73;;;14.30;;
50483;SDS011;36409;52.168;20.878;2024-03-08T13:55:43;26.25;;;13.85;;
50483;SDS011;36409;52.168;20.878;2024-03-08T13:58:15;27.00;;;14.00;;
50483;SDS011;36409;52.168;20.878;2024-03-08T14:00:49;29.92;;;14.93;;
50483;SDS011;36409;52.168;20.878;2024-03-08T14:03:22;28.17;;;14.57;;
50483;SDS011;36409;52.168;20.878;2024-03-08T14:05:55;25.93;;;14.07;;
50483;SDS011;36409;52.168;20.878;2024-03-08T14:08:28;23.20;;;14.00;;
50483;SDS011;36409;52.168;20.878;2024-03-08T14:11:03;26.73;;;14.87;;
50483;SDS011;36409;52.168;20.878;2024-03-08T14:13:43;28.87;;;15.43;;
50483;SDS011;36409;52.168;20.878;2024-03-08T14:18:47;28.03;;;15.57;;
50483;SDS011;36409;52.168;20.878;2024-03-08T14:21:20;26.33;;;15.57;;
50483;SDS011;36409;52.168;20.878;2024-03-08T14:23:52;28.00;;;15.57;;
50483;SDS011;36409;52.168;20.878;2024-03-08T14:26:26;27.93;;;15.43;;
50483;SDS011;36409;52.168;20.878;2024-03-08T14:28:58;34.40;;;16.30;;
50483;SDS011;36409;52.168;20.878;2024-03-08T14:31:31;33.57;;;16.20;;
50483;SDS011;36409;52.168;20.878;2024-03-08T14:34:07;24.57;;;15.37;;
50483;SDS011;36409;52.168;20.878;2024-03-08T14:36:40;31.47;;;15.10;;
50483;SDS011;36409;52.168;20.878;2024-03-08T14:41:45;32.95;;;15.20;;
50483;SDS011;36409;52.168;20.878;2024-03-08T14:44:17;27.33;;;15.43;;
50483;SDS011;36409;52.168;20.878;2024-03-08T14:46:57;32.30;;;15.43;;
50483;SDS011;36409;52.168;20.878;2024-03-08T14:49:30;28.13;;;14.87;;
50483;SDS011;36409;52.168;20.878;2024-03-08T14:52:07;30.27;;;15.37;;
50483;SDS011;36409;52.168;20.878;2024-03-08T14:54:56;26.90;;;15.10;;
50483;SDS011;36409;52.168;20.878;2024-03-08T14:57:29;26.17;;;15.23;;
50483;SDS011;36409;52.168;20.878;2024-03-08T15:02:56;29.00;;;14.60;;
50483;SDS011;36409;52.168;20.878;2024-03-08T15:05:29;24.83;;;14.67;;
50483;SDS011;36409;52.168;20.878;2024-03-08T15:08:06;28.70;;;15.40;;
50483;SDS011;36409;52.168;20.878;2024-03-08T15:10:50;30.48;;;14.87;;
50483;SDS011;36409;52.168;20.878;2024-03-08T15:13:32;28.73;;;15.13;;
50483;SDS011;36409;52.168;20.878;2024-03-08T15:16:17;27.73;;;15.80;;
50483;SDS011;36409;52.168;20.878;2024-03-08T15:18:54;26.30;;;15.27;;
50483;SDS011;36409;52.168;20.878;2024-03-08T15:21:29;27.13;;;15.10;;